Hollidaysburg, Pennsylvania
Current Conditions -  °F | °C
As of 5:53 AM on Thursday 23 Oct 2014 (Local Time) from KAOO Reporting Station
Overcast Overcast  
Wind Chill: 39°   Ceiling: 1500
Heat Index: 46°   Visibility: 10mi
Dew Point: 41°   Wind: 16mph
Humidity: 83%   Direction: 320°NW
Pressure: 30.01"   Gusts: NA
Location:  40.43°N, 78.39°W
Report Text: KAOO 230953Z AUTO 32014KT 10SM OVC015 08/05 A3001 RMK AO2 SLP168 T00780050
Loading
Personal Weather Stations






























Interactive Weather Map
Tropical Storm Tracking
New forecast layout! Learn more

10-Day Weather Forecast

Advertisements
Track Severe Weather on mobile